createdAt,value
2022-08-05T06:35:06.048Z,6372.00
2022-08-05T06:36:10.194Z,7092.00
2022-08-05T06:37:03.623Z,7396.00
2022-08-05T06:38:10.178Z,9176.00
2022-08-05T06:39:03.686Z,9932.00
2022-08-05T06:40:03.659Z,11648.00
2022-08-05T06:41:08.180Z,11352.00
2022-08-05T09:38:43.527Z,88032.00
2022-08-05T09:39:45.572Z,88960.00
2022-08-05T15:13:09.947Z,1116.00
2022-08-05T15:14:07.652Z,1156.00
2022-08-05T15:15:10.799Z,1604.00
2022-08-05T15:16:07.683Z,2520.00
2022-08-05T15:17:09.907Z,2976.00
2022-08-05T15:18:07.709Z,2764.00
2022-08-05T15:19:07.720Z,2784.00
2022-08-05T15:20:11.944Z,2684.00
2022-08-05T15:21:08.068Z,2340.00
2022-08-05T15:22:07.757Z,2144.00
2022-08-05T15:23:07.775Z,2232.00
2022-08-05T15:24:07.784Z,2352.00
2022-08-05T15:25:11.848Z,2284.00
2022-08-05T15:26:07.802Z,2080.00
2022-08-05T15:27:08.931Z,1852.00
2022-08-05T15:28:07.835Z,1644.00
2022-08-05T15:29:07.840Z,1432.00
2022-08-05T15:30:08.259Z,1288.00
2022-08-05T15:31:07.875Z,1288.00
2022-08-05T15:32:07.885Z,1476.00
2022-08-05T15:33:07.894Z,1712.00
2022-08-05T15:34:31.207Z,1816.00
2022-08-05T15:35:10.535Z,1928.00
2022-08-05T15:36:09.067Z,2308.00
2022-08-05T15:37:14.691Z,2748.00
2022-08-05T15:38:33.291Z,2804.00
2022-08-05T15:40:59.158Z,2852.00
2022-08-05T15:41:04.037Z,2804.00
2022-08-05T15:41:23.953Z,2568.00
2022-08-05T15:42:54.770Z,2676.00
2022-08-05T15:43:19.710Z,3316.00
2022-08-05T15:44:08.334Z,3552.00
2022-08-05T15:45:09.708Z,3040.00
2022-08-05T15:46:08.061Z,2996.00
2022-08-05T15:47:08.080Z,3328.00
2022-08-05T15:48:08.089Z,3692.00
2022-08-05T15:49:10.086Z,4100.00
2022-08-05T15:50:08.113Z,4192.00
2022-08-05T15:51:08.137Z,4808.00
2022-08-05T15:52:16.771Z,6316.00
2022-08-05T15:53:09.252Z,7588.00
2022-08-05T15:54:08.549Z,10020.00
2022-08-05T15:55:08.177Z,11460.00
2022-08-05T15:56:14.041Z,11060.00
2022-08-05T15:57:08.212Z,10620.00
2022-08-05T15:58:08.232Z,10740.00
2022-08-05T15:59:08.239Z,11056.00
2022-08-05T16:00:08.245Z,11088.00
2022-08-05T16:01:16.158Z,10336.00
2022-08-05T16:02:09.826Z,8408.00
2022-08-05T16:03:08.384Z,6696.00
2022-08-05T16:04:08.306Z,5848.00
2022-08-05T16:05:09.750Z,5112.00
2022-08-05T16:06:08.353Z,5200.00
2022-08-05T16:07:10.698Z,5492.00
2022-08-05T16:08:11.588Z,4936.00
2022-08-05T16:09:08.365Z,4532.00
2022-08-05T16:10:11.540Z,5036.00
2022-08-05T16:11:08.391Z,4876.00
2022-08-05T16:12:12.078Z,5216.00
2022-08-05T16:13:08.417Z,6032.00
2022-08-05T16:14:09.122Z,6104.00
2022-08-05T16:15:09.514Z,6092.00
2022-08-05T16:16:10.616Z,6064.00
2022-08-05T16:17:09.465Z,6076.00
2022-08-05T16:18:09.082Z,6624.00
2022-08-05T16:19:09.861Z,6732.00
2022-08-05T16:20:11.442Z,6932.00
2022-08-05T16:21:08.533Z,6828.00
2022-08-05T16:22:10.456Z,6532.00
2022-08-05T16:23:09.297Z,6148.00
2022-08-05T16:24:39.494Z,6208.00
2022-08-05T16:25:09.807Z,6944.00
2022-08-05T16:26:08.603Z,7228.00
2022-08-05T16:28:05.127Z,6912.00
2022-08-05T16:28:51.174Z,6180.00
2022-08-05T16:29:51.333Z,5428.00
2022-08-05T16:30:51.197Z,4728.00
2022-08-05T16:31:56.392Z,4192.00
2022-08-05T16:32:51.226Z,4544.00
2022-08-05T16:33:51.234Z,5088.00
2022-08-05T16:34:51.244Z,5036.00
2022-08-05T16:35:53.042Z,4824.00
2022-08-05T16:36:51.285Z,4904.00
2022-08-05T16:38:01.982Z,4920.00
2022-08-05T16:38:54.906Z,4708.00
2022-08-05T16:40:05.299Z,4488.00
2022-08-05T16:40:55.042Z,5000.00
2022-08-05T16:42:14.979Z,5700.00
2022-08-05T16:42:51.363Z,5520.00
2022-08-05T16:43:56.143Z,4916.00
2022-08-05T16:44:54.331Z,5028.00
2022-08-05T16:46:06.860Z,4868.00
2022-08-05T16:46:56.123Z,5764.00
2022-08-05T16:47:55.600Z,6524.00
2022-08-05T16:48:51.439Z,6792.00
2022-08-05T16:49:51.555Z,6872.00
2022-08-05T16:50:51.468Z,7052.00
2022-08-05T16:51:56.903Z,6880.00
2022-08-05T16:52:51.486Z,6484.00
2022-08-05T16:54:04.019Z,6336.00
2022-08-05T16:54:51.519Z,6036.00
2022-08-05T16:55:51.532Z,5784.00
2022-08-05T16:56:52.295Z,5524.00
2022-08-05T16:58:00.088Z,5056.00
2022-08-05T16:58:51.574Z,4696.00
2022-08-05T17:00:04.401Z,4472.00
2022-08-05T17:01:54.431Z,4388.00
2022-08-05T17:02:34.161Z,4184.00
2022-08-05T17:03:34.175Z,4128.00
2022-08-05T17:04:34.186Z,4356.00
2022-08-05T17:05:34.201Z,4384.00
2022-08-05T17:06:34.610Z,3988.00
2022-08-05T17:07:43.485Z,3988.00
2022-08-05T17:08:51.932Z,4032.00
2022-08-05T17:09:57.495Z,4084.00
2022-08-05T17:10:34.258Z,4068.00
2022-08-05T17:11:48.237Z,4256.00
2022-08-05T17:12:51.439Z,4548.00
2022-08-05T17:13:37.820Z,4984.00
2022-08-05T17:14:37.137Z,5100.00
2022-08-05T17:15:48.562Z,5152.00
2022-08-05T17:16:36.453Z,5224.00
2022-08-05T17:18:16.900Z,5324.00
2022-08-05T17:19:16.918Z,4560.00
2022-08-05T17:20:19.548Z,4296.00
2022-08-05T17:21:59.487Z,4660.00
2022-08-05T17:22:59.505Z,4488.00
2022-08-05T17:24:04.569Z,4224.00
2022-08-05T17:25:00.263Z,3872.00
2022-08-05T17:25:59.537Z,3568.00
2022-08-05T17:26:59.558Z,3148.00
2022-08-05T17:27:59.570Z,3108.00
2022-08-05T17:28:59.581Z,3436.00
2022-08-05T17:30:02.244Z,3508.00
2022-08-05T17:30:59.611Z,3552.00
2022-08-05T17:31:59.671Z,3664.00
2022-08-05T17:32:59.630Z,3824.00
2022-08-05T17:33:59.654Z,3792.00
2022-08-05T17:34:59.657Z,3304.00
2022-08-05T17:36:08.369Z,3132.00
2022-08-05T17:36:59.756Z,3128.00
2022-08-05T17:38:00.729Z,3556.00
2022-08-05T17:38:59.779Z,3504.00
2022-08-05T17:40:00.078Z,3292.00
2022-08-05T17:40:59.741Z,3108.00
2022-08-05T17:42:17.844Z,2940.00
2022-08-05T17:42:59.762Z,2900.00
2022-08-05T17:43:59.782Z,2852.00
2022-08-05T17:44:59.924Z,2780.00
2022-08-05T17:45:59.801Z,2648.00
2022-08-05T17:46:59.816Z,2396.00
2022-08-05T17:47:59.836Z,2324.00
2022-08-05T17:48:59.838Z,2332.00
2022-08-05T17:50:10.440Z,2308.00
2022-08-05T17:50:59.868Z,2168.00
2022-08-05T17:51:59.879Z,1988.00
2022-08-05T17:53:00.099Z,1864.00
2022-08-05T17:53:59.903Z,1740.00
2022-08-05T17:54:59.926Z,1624.00
2022-08-05T17:55:59.937Z,1600.00
2022-08-05T17:56:59.944Z,1400.00
2022-08-05T17:57:59.964Z,1216.00
2022-08-05T17:58:59.972Z,1120.00
2022-08-05T18:00:05.159Z,1088.00
2022-08-05T18:01:00.001Z,1096.00
2022-08-05T18:02:00.018Z,1160.00
2022-08-05T18:03:00.029Z,1228.00
2022-08-05T18:04:04.412Z,1228.00
2022-08-05T18:05:00.185Z,1228.00
2022-08-05T18:06:01.856Z,1180.00
2022-08-05T18:07:00.543Z,1164.00
2022-08-05T18:08:00.092Z,1136.00
2022-08-05T18:09:00.097Z,1132.00
2022-08-05T18:10:08.768Z,1156.00
2022-08-05T18:11:00.128Z,1200.00
2022-08-05T18:12:00.143Z,1256.00
2022-08-05T18:13:00.146Z,1276.00
2022-08-05T18:14:00.167Z,1256.00
2022-08-05T18:15:00.186Z,1216.00
2022-08-05T18:16:00.194Z,1128.00
2022-08-05T18:17:00.203Z,1016.00
2022-08-05T18:18:05.648Z,892.00
2022-08-05T18:19:00.229Z,828.00
2022-08-05T18:20:00.242Z,836.00
2022-08-05T18:21:00.248Z,820.00
2022-08-05T18:22:07.605Z,800.00
2022-08-05T18:23:00.563Z,808.00
2022-08-05T18:24:00.288Z,848.00
2022-08-05T18:25:00.308Z,860.00
2022-08-05T18:26:00.342Z,852.00
2022-08-05T18:27:00.330Z,864.00
2022-08-05T18:28:01.690Z,876.00
2022-08-05T18:29:00.351Z,896.00
2022-08-05T18:30:00.367Z,876.00
2022-08-05T18:31:00.373Z,848.00
2022-08-05T18:32:00.388Z,812.00
2022-08-05T18:33:01.012Z,784.00
2022-08-05T18:34:00.414Z,752.00
2022-08-05T18:35:00.430Z,716.00
2022-08-05T18:36:06.948Z,696.00
2022-08-05T18:37:00.448Z,660.00
2022-08-05T18:38:00.469Z,624.00
2022-08-05T18:39:00.545Z,596.00
2022-08-05T18:40:34.235Z,572.00
2022-08-05T18:41:53.594Z,556.00
2022-08-05T18:42:06.178Z,532.00
2022-08-05T18:43:00.530Z,516.00
2022-08-05T18:44:05.752Z,492.00
2022-08-05T18:45:00.548Z,460.00
2022-08-05T18:46:00.568Z,432.00
2022-08-05T18:47:00.579Z,404.00
2022-08-05T18:48:00.596Z,380.00
2022-08-05T18:49:00.607Z,348.00
2022-08-05T18:50:00.640Z,324.00
2022-08-05T18:51:01.633Z,308.00
2022-08-05T18:52:04.052Z,284.00
2022-08-05T18:53:00.656Z,268.00
2022-08-05T18:54:00.659Z,252.00
2022-08-05T18:55:00.681Z,236.00
2022-08-05T18:56:00.684Z,228.00
2022-08-05T18:57:01.191Z,220.00
2022-08-05T18:58:03.279Z,208.00
2022-08-05T18:59:01.374Z,184.00
2022-08-05T19:00:02.578Z,168.00
2022-08-05T19:01:01.383Z,152.00
2022-08-05T19:02:00.801Z,140.00
2022-08-05T19:03:03.766Z,128.00
2022-08-05T19:04:00.787Z,112.00
2022-08-05T19:05:02.614Z,100.00
2022-08-05T19:06:11.562Z,92.00
2022-08-05T19:07:00.819Z,80.00
2022-08-05T19:08:00.840Z,72.00
2022-08-05T19:09:01.495Z,64.00
2022-08-05T19:10:00.860Z,52.00
2022-08-05T19:11:04.428Z,48.00
2022-08-05T19:12:01.588Z,44.00
2022-08-05T19:13:00.896Z,40.00
2022-08-05T19:14:11.091Z,32.00
2022-08-05T19:15:02.671Z,28.00
2022-08-05T19:16:47.077Z,24.00
2022-08-05T19:19:53.669Z,16.00
2022-08-05T19:24:17.125Z,8.00
2022-08-05T19:26:08.513Z,8.00
2022-08-05T19:33:48.656Z,4.00
2022-08-05T19:34:55.076Z,4.00
2022-08-05T19:43:04.749Z,0.00
2022-08-05T19:45:14.436Z,0.00
2022-08-05T19:46:16.908Z,0.00
2022-08-05T19:49:57.614Z,0.00
2022-08-05T19:58:53.477Z,0.00
2022-08-05T20:02:48.772Z,0.00
2022-08-05T20:03:48.778Z,0.00
2022-08-05T20:04:48.787Z,0.00
2022-08-05T20:05:51.420Z,0.00
2022-08-05T20:06:48.810Z,0.00
2022-08-05T20:07:49.299Z,0.00
2022-08-05T20:08:49.004Z,0.00
2022-08-05T20:09:54.616Z,0.00
2022-08-05T20:10:49.677Z,0.00
2022-08-05T20:11:48.877Z,0.00
2022-08-05T20:12:49.340Z,0.00
2022-08-05T20:13:54.731Z,0.00
2022-08-05T20:14:48.946Z,0.00
2022-08-05T20:15:55.883Z,0.00
2022-08-05T20:16:48.931Z,0.00
2022-08-05T20:17:48.944Z,0.00
2022-08-05T20:18:55.420Z,0.00
2022-08-05T20:19:48.960Z,0.00
2022-08-05T20:20:48.979Z,0.00
2022-08-05T20:21:48.992Z,0.00
2022-08-05T20:22:48.992Z,0.00
2022-08-05T20:23:53.075Z,0.00
2022-08-05T20:24:49.015Z,0.00
2022-08-05T20:25:49.128Z,0.00
2022-08-05T20:26:49.041Z,0.00
2022-08-05T20:27:49.050Z,0.00
2022-08-05T20:28:49.061Z,0.00
2022-08-05T20:29:52.249Z,0.00
2022-08-05T20:30:49.090Z,0.00
2022-08-05T20:31:52.133Z,0.00
2022-08-05T20:32:49.112Z,0.00
2022-08-05T20:33:49.126Z,0.00
2022-08-05T20:34:49.132Z,0.00
2022-08-05T20:35:49.147Z,0.00
2022-08-05T20:36:49.150Z,0.00
2022-08-05T20:38:06.332Z,0.00
2022-08-05T20:38:54.449Z,0.00
2022-08-05T20:39:51.458Z,0.00
2022-08-05T20:40:50.539Z,0.00
2022-08-05T20:41:49.208Z,0.00
2022-08-05T20:42:49.220Z,0.00
2022-08-05T20:43:59.683Z,0.00
2022-08-05T20:44:49.250Z,0.00
2022-08-05T20:45:56.690Z,0.00
2022-08-05T20:46:49.264Z,0.00
2022-08-05T20:47:49.285Z,0.00
2022-08-05T20:48:51.130Z,0.00
2022-08-05T20:49:51.309Z,0.00
2022-08-05T20:50:49.320Z,0.00
2022-08-05T20:51:53.741Z,0.00
2022-08-05T20:52:49.340Z,0.00
2022-08-05T20:53:56.761Z,0.00
2022-08-05T20:54:59.367Z,0.00
2022-08-05T20:56:07.886Z,0.00
2022-08-05T20:56:49.383Z,0.00
2022-08-05T20:57:49.387Z,0.00
2022-08-05T20:58:51.851Z,0.00
2022-08-05T21:00:21.177Z,0.00
2022-08-05T21:00:54.353Z,0.00
2022-08-05T21:01:49.539Z,0.00
2022-08-05T21:02:52.149Z,0.00
2022-08-05T21:03:49.465Z,0.00
2022-08-05T21:04:49.466Z,0.00
2022-08-05T21:05:54.361Z,0.00
2022-08-05T21:06:49.495Z,0.00
2022-08-05T21:07:52.240Z,0.00
2022-08-05T21:08:49.511Z,0.00
2022-08-05T21:09:53.250Z,0.00
2022-08-05T21:10:49.538Z,0.00
2022-08-05T21:12:07.726Z,0.00
2022-08-05T21:13:08.290Z,0.00
2022-08-05T21:13:56.776Z,0.00
2022-08-05T21:14:49.584Z,0.00
2022-08-05T21:15:51.094Z,0.00
2022-08-05T21:16:49.603Z,0.00
2022-08-05T21:17:49.616Z,0.00
2022-08-05T21:18:49.616Z,0.00
2022-08-05T21:19:50.591Z,0.00
2022-08-05T21:20:49.648Z,0.00
2022-08-05T21:21:50.820Z,0.00
2022-08-05T21:22:49.668Z,0.00
2022-08-05T21:23:49.681Z,0.00
2022-08-05T21:24:51.585Z,0.00
2022-08-05T21:25:49.703Z,0.00
2022-08-05T21:26:53.365Z,0.00
2022-08-05T21:27:52.708Z,0.00
2022-08-05T21:28:51.034Z,0.00
2022-08-05T21:29:50.914Z,0.00
2022-08-05T21:30:49.748Z,0.00
2022-08-05T21:31:49.757Z,0.00
2022-08-05T21:32:49.769Z,0.00
2022-08-05T21:33:49.821Z,0.00
2022-08-05T21:35:07.009Z,0.00
2022-08-05T21:35:58.692Z,0.00
2022-08-05T21:36:49.811Z,0.00
2022-08-05T21:37:53.266Z,0.00
2022-08-05T21:38:49.841Z,0.00
2022-08-05T21:39:49.911Z,0.00
2022-08-05T21:40:49.857Z,0.00
2022-08-05T21:41:52.799Z,0.00
2022-08-05T21:42:52.087Z,0.00
2022-08-05T21:44:01.848Z,0.00
2022-08-05T21:44:49.905Z,0.00
2022-08-05T21:45:56.682Z,0.00
2022-08-05T21:46:49.919Z,0.00
2022-08-05T21:47:56.456Z,0.00
2022-08-05T21:48:49.941Z,0.00
2022-08-05T21:50:01.292Z,0.00
2022-08-05T21:50:53.216Z,0.00
2022-08-05T21:52:22.676Z,0.00
2022-08-05T21:52:49.986Z,0.00
2022-08-05T21:53:56.801Z,0.00
2022-08-05T21:54:51.230Z,0.00
2022-08-05T21:56:05.809Z,0.00
2022-08-05T21:56:51.530Z,0.00
2022-08-05T21:57:50.034Z,0.00
2022-08-05T21:58:57.761Z,0.00
2022-08-05T22:00:06.159Z,0.00
2022-08-05T22:00:51.476Z,0.00
2022-08-05T22:01:50.079Z,0.00
2022-08-05T22:02:50.088Z,0.00
2022-08-05T22:03:53.054Z,0.00
2022-08-05T22:04:50.115Z,0.00
2022-08-05T22:05:50.124Z,0.00
2022-08-05T22:06:50.502Z,0.00
2022-08-05T22:07:58.417Z,0.00
2022-08-05T22:08:51.838Z,0.00
2022-08-05T22:09:50.175Z,0.00
2022-08-05T22:10:50.180Z,0.00
2022-08-05T22:11:50.184Z,0.00
2022-08-05T22:12:50.681Z,0.00
2022-08-05T22:14:32.445Z,0.00
2022-08-05T22:14:50.213Z,0.00
2022-08-05T22:16:01.845Z,0.00
2022-08-05T22:16:51.199Z,0.00
2022-08-05T22:17:59.835Z,0.00
2022-08-05T22:18:50.261Z,0.00
2022-08-05T22:20:01.523Z,0.00
2022-08-05T22:20:51.566Z,0.00
2022-08-05T22:21:50.287Z,0.00
2022-08-05T22:22:50.298Z,0.00
2022-08-05T22:24:01.900Z,0.00
2022-08-05T22:24:52.070Z,0.00
2022-08-05T22:26:10.773Z,0.00
2022-08-05T22:26:50.491Z,0.00
2022-08-05T22:28:09.415Z,0.00
2022-08-05T22:28:50.368Z,0.00
2022-08-05T22:29:54.300Z,0.00
2022-08-05T22:30:56.816Z,0.00
2022-08-05T22:31:55.131Z,0.00
2022-08-05T22:32:50.400Z,0.00
2022-08-05T22:33:57.519Z,0.00
2022-08-05T22:34:50.422Z,0.00
2022-08-05T22:35:50.440Z,0.00
2022-08-05T22:36:50.440Z,0.00
2022-08-05T22:37:59.353Z,0.00
2022-08-05T22:38:50.473Z,0.00
2022-08-05T22:39:50.737Z,0.00
2022-08-05T22:40:54.854Z,0.00
2022-08-05T22:42:11.436Z,0.00
2022-08-05T22:42:57.751Z,0.00
2022-08-05T22:43:50.521Z,0.00
2022-08-05T22:44:56.303Z,0.00
2022-08-05T22:45:50.532Z,0.00
2022-08-05T22:46:50.551Z,0.00
2022-08-05T22:47:50.554Z,0.00
2022-08-05T22:48:50.569Z,0.00
2022-08-05T22:50:20.000Z,0.00
2022-08-05T22:50:56.259Z,0.00
2022-08-05T22:52:06.643Z,0.00
2022-08-05T22:52:51.434Z,0.00
2022-08-05T22:53:50.623Z,0.00
2022-08-05T22:54:50.624Z,0.00
2022-08-05T22:55:57.208Z,0.00
2022-08-05T22:56:50.650Z,0.00
2022-08-05T22:57:50.655Z,0.00
2022-08-05T22:58:50.665Z,0.00
2022-08-05T22:59:54.105Z,0.00
2022-08-05T23:00:50.694Z,0.00
2022-08-05T23:02:05.810Z,0.00
2022-08-05T23:02:50.857Z,0.00
2022-08-05T23:03:58.100Z,0.00
2022-08-05T23:04:51.531Z,0.00
2022-08-05T23:05:50.737Z,0.00
2022-08-05T23:06:50.752Z,0.00
2022-08-05T23:07:50.832Z,0.00
2022-08-05T23:08:52.267Z,0.00
2022-08-05T23:09:53.392Z,0.00
2022-08-05T23:10:55.953Z,0.00
2022-08-05T23:11:50.802Z,0.00
2022-08-05T23:12:51.226Z,0.00
2022-08-05T23:13:51.606Z,0.00
2022-08-05T23:14:50.826Z,0.00
2022-08-05T23:15:50.838Z,0.00
2022-08-05T23:16:52.073Z,0.00
2022-08-05T23:18:00.645Z,0.00
2022-08-05T23:18:50.874Z,0.00
2022-08-05T23:19:56.094Z,0.00
2022-08-05T23:20:50.894Z,0.00
2022-08-05T23:21:50.895Z,0.00
2022-08-05T23:22:50.907Z,0.00
2022-08-05T23:23:50.914Z,0.00
2022-08-05T23:24:51.309Z,0.00
2022-08-05T23:25:55.203Z,0.00
2022-08-05T23:26:50.946Z,0.00
2022-08-05T23:28:00.190Z,0.00
2022-08-05T23:28:50.972Z,0.00
2022-08-05T23:29:50.975Z,0.00
2022-08-05T23:30:53.397Z,0.00
2022-08-05T23:31:51.007Z,0.00
2022-08-05T23:32:51.003Z,0.00
2022-08-05T23:34:04.915Z,0.00
2022-08-05T23:34:51.032Z,0.00
2022-08-05T23:35:51.062Z,0.00
2022-08-05T23:36:51.050Z,0.00
2022-08-05T23:37:51.053Z,0.00
2022-08-05T23:38:51.253Z,0.00
2022-08-05T23:39:54.583Z,0.00
2022-08-05T23:40:52.587Z,0.00
2022-08-05T23:41:51.093Z,0.00
2022-08-05T23:42:53.731Z,0.00
2022-08-05T23:44:04.874Z,0.00
2022-08-05T23:44:54.535Z,0.00
2022-08-05T23:45:51.132Z,0.00
2022-08-05T23:46:51.142Z,0.00
2022-08-05T23:47:53.864Z,0.00
2022-08-05T23:48:59.817Z,0.00
2022-08-05T23:49:52.118Z,0.00
2022-08-05T23:50:51.183Z,0.00
2022-08-05T23:51:53.406Z,0.00
2022-08-05T23:52:51.218Z,0.00
2022-08-05T23:53:51.212Z,0.00
2022-08-05T23:54:51.219Z,0.00
2022-08-05T23:55:51.238Z,0.00
2022-08-05T23:56:51.246Z,0.00
2022-08-05T23:57:52.906Z,0.00
2022-08-05T23:58:51.267Z,0.00
